ADDS METAR Data INFO
IDs: Format: Raw Decoded Include TAF

Data at: 1815 UTC 25 May 2017

KGGG 251753Z 18013KT 10SM CLR 29/16 A2976 RMK AO2 SLP074 T02890156 10289 20144 56010
KGGG 251653Z 18015G19KT 10SM CLR 27/16 A2977 RMK AO2 SLP077 T02720156
KGGG 251553Z 19013KT 10SM CLR 26/16 A2978 RMK AO2 SLP080 T02560156

KGGG 251740Z 2518/2618 18015G25KT P6SM SKC
  FM260000 17010KT P6SM SKC
  FM261000 19010KT P6SM SCT015
  FM261500 19015G25KT P6SM SCT015 SCT250


KTYR 251753Z 21018G24KT 10SM CLR 28/14 A2976 RMK AO2 SLP073 T02780144 10283 20150 56006
KTYR 251653Z 19013KT 10SM CLR 27/15 A2977 RMK AO2 SLP074 T02670150
KTYR 251553Z 18013KT 10SM CLR 25/14 A2977 RMK AO2 SLP073 T02500139

KTYR 251740Z 2518/2618 19015G25KT P6SM SKC
  FM260900 17012G20KT P6SM BKN015
  FM261500 21015G25KT P6SM SCT015 SCT150



Page loaded:  18:15 UTC  |   11:15 AM Pacific  |   12:15 PM Mountain  |   01:15 PM Central  |   02:15 PM Eastern

 

ADVISORIES

FORECASTS

FORECASTS

OBSERVATIONS

USER TOOLS

ABOUT US